Flugplatz Pfullendorf

Für EDTP sind keine METAR/TAF Berichte vorhanden.
Es werden die Flugwettermeldungen vom Flugplatz Friedrichshafen in 32 km Entfernung angezeigt.

Bericht für EDNY

vom 26.09. um 23:20 UTC

Wind 12 kt aus 240°

Sichtweite 10 km oder mehr

bedeckt in 2700 ft

Temperatur 8.0°C

Taupunkt 4.0°C

Luftfeuchtigkeit 76%

Luftdruck 1004 hPa

EDNY 262320Z AUTO 24012KT 9999 // OVC027/// 08/04 Q1004

Prognose für EDNY

vom 26.09. um 23:00 UTC

Zwischen 00:00 UTC und 05:00 UTC

Wind 10 kt aus 240°

Sichtweite 10 km oder mehr

aufgebrochene Bewölkung in 2500 ft


Zwischen 05:00 UTC und 17:00 UTC

Wind 5 kt aus 230°

Sichtweite 10 km oder mehr

gering bewölkt in 6000 ft


Zwischen 17:00 und 19:00 UTC übergehend zu

variable Windrichtung mit 2 kt

Sichtweite 10 km oder mehr

gering bewölkt in 6000 ft

TAF EDNY 262300Z 2700/2724 24010KT 9999 BKN025 FM270500 23005KT 9999 FEW060 BECMG 2717/2719 VRB02KT
Impressum